Time;durP1;ratioP1;P1;durP2;ratioP2;P2;SDS_P1;SDS_P2;PMS_P1;PMS_P2;Temp;Humidity;BMP_temperature;BMP_pressure;BME280_temperature;BME280_humidity;BME280_pressure;Samples;Min_cycle;Max_cycle;Signal;HPM_P1;HPM_P2
2022/03/17 00:01:24;;;;;;;42.67;18.65;;;;;;;;;;5106985;28;20123;-71
2022/03/17 00:03:49;;;;;;;37.08;17.55;;;;;;;;;;5102987;28;20487;-71
2022/03/17 00:06:15;;;;;;;42.60;18.25;;;;;;;;;;5107085;28;20058;-71
2022/03/17 00:08:40;;;;;;;43.03;18.08;;;;;;;;;;5115267;27;20031;-71
2022/03/17 00:11:06;;;;;;;34.97;16.83;;;;;;;;;;5104310;28;20028;-70
2022/03/17 00:13:31;;;;;;;37.75;17.05;;;;;;;;;;5087138;28;20101;-71
2022/03/17 00:15:57;;;;;;;35.13;16.00;;;;;;;;;;5104502;27;20039;-71
2022/03/17 00:18:23;;;;;;;35.60;16.50;;;;;;;;;;5107508;28;20059;-71
2022/03/17 00:20:48;;;;;;;37.13;17.30;;;;;;;;;;5101335;28;20043;-71
2022/03/17 00:23:13;;;;;;;38.72;17.48;;;;;;;;;;5089752;28;20473;-71
2022/03/17 00:25:38;;;;;;;31.42;15.38;;;;;;;;;;5106858;27;20039;-71
2022/03/17 00:28:04;;;;;;;29.23;15.25;;;;;;;;;;5108310;27;20062;-71
2022/03/17 00:30:29;;;;;;;29.02;14.32;;;;;;;;;;5106807;27;20467;-71
2022/03/17 00:32:55;;;;;;;28.48;15.27;;;;;;;;;;5107313;27;20031;-71
2022/03/17 00:35:35;;;;;;;31.40;14.88;;;;;;;;;;5104500;28;20027;-71
2022/03/17 00:38:08;;;;;;;28.80;13.90;;;;;;;;;;5105658;28;20813;-71
2022/03/17 00:40:35;;;;;;;32.63;15.57;;;;;;;;;;5100833;28;20036;-71
2022/03/17 00:43:02;;;;;;;25.45;13.25;;;;;;;;;;5110927;28;20108;-71
2022/03/17 00:45:28;;;;;;;26.60;12.60;;;;;;;;;;5110686;27;20043;-71
2022/03/17 00:47:54;;;;;;;20.98;11.38;;;;;;;;;;5111142;27;20110;-71
2022/03/17 00:50:20;;;;;;;24.85;11.85;;;;;;;;;;5107415;28;20035;-71
2022/03/17 00:52:45;;;;;;;24.95;12.15;;;;;;;;;;5096304;28;20036;-71
2022/03/17 00:55:11;;;;;;;31.17;14.52;;;;;;;;;;5106965;28;20047;-71
2022/03/17 00:57:37;;;;;;;27.65;13.88;;;;;;;;;;5099971;28;20127;-71
2022/03/17 01:00:05;;;;;;;30.58;14.68;;;;;;;;;;5105885;28;20174;-71
2022/03/17 01:02:31;;;;;;;32.63;14.13;;;;;;;;;;5108502;27;20028;-71
2022/03/17 01:04:56;;;;;;;25.58;12.35;;;;;;;;;;5094640;28;20549;-71
2022/03/17 01:07:21;;;;;;;34.47;16.95;;;;;;;;;;5099496;28;20067;-71
2022/03/17 01:09:47;;;;;;;35.20;16.52;;;;;;;;;;5105208;27;20516;-71
2022/03/17 01:12:13;;;;;;;37.85;17.42;;;;;;;;;;5105057;28;20050;-71
2022/03/17 01:14:38;;;;;;;34.95;17.25;;;;;;;;;;5110559;27;20020;-71
2022/03/17 01:17:04;;;;;;;31.83;17.27;;;;;;;;;;5110364;28;20053;-71
2022/03/17 01:19:29;;;;;;;31.27;16.30;;;;;;;;;;5108858;28;20114;-71
2022/03/17 01:21:54;;;;;;;33.80;17.42;;;;;;;;;;5102306;27;20067;-71
2022/03/17 01:24:20;;;;;;;42.83;22.63;;;;;;;;;;5101031;27;20101;-72
2022/03/17 01:26:46;;;;;;;43.03;23.48;;;;;;;;;;5107622;28;20614;-71
2022/03/17 01:29:12;;;;;;;32.55;17.80;;;;;;;;;;5109411;28;20015;-71
2022/03/17 01:31:38;;;;;;;40.72;21.08;;;;;;;;;;5106389;28;20056;-71
2022/03/17 01:34:03;;;;;;;43.17;16.27;;;;;;;;;;5089209;28;20587;-71
2022/03/17 01:36:29;;;;;;;38.72;19.90;;;;;;;;;;5080126;28;20040;-71
2022/03/17 01:38:55;;;;;;;48.03;23.25;;;;;;;;;;5108644;28;20053;-71
2022/03/17 01:41:20;;;;;;;41.88;20.15;;;;;;;;;;5096880;28;20030;-71
2022/03/17 01:43:46;;;;;;;38.05;17.20;;;;;;;;;;5090727;28;20112;-71
2022/03/17 01:46:14;;;;;;;39.05;18.23;;;;;;;;;;5078947;27;20059;-71
2022/03/17 01:48:40;;;;;;;33.33;16.70;;;;;;;;;;5089507;28;20036;-71
2022/03/17 01:51:05;;;;;;;36.72;15.45;;;;;;;;;;5107533;27;20043;-71
2022/03/17 01:53:31;;;;;;;31.38;15.38;;;;;;;;;;5100814;27;20455;-71
2022/03/17 01:55:58;;;;;;;32.10;14.30;;;;;;;;;;5085497;28;20095;-71
2022/03/17 01:58:24;;;;;;;35.50;14.95;;;;;;;;;;5096445;28;20040;-71
2022/03/17 02:00:50;;;;;;;32.50;14.80;;;;;;;;;;5105387;27;20098;-71
2022/03/17 02:03:16;;;;;;;37.05;18.17;;;;;;;;;;5098612;28;20040;-71
2022/03/17 02:05:43;;;;;;;35.70;17.50;;;;;;;;;;5109109;27;20110;-71
2022/03/17 02:08:09;;;;;;;30.58;13.65;;;;;;;;;;5108577;28;20023;-71
2022/03/17 02:13:19;;;;;;;44.78;21.35;;;;;;;;;;5098351;27;20038;-71
2022/03/17 02:15:53;;;;;;;39.42;19.13;;;;;;;;;;5105678;27;20118;-71
2022/03/17 02:18:19;;;;;;;32.38;17.05;;;;;;;;;;5109038;27;20038;-71
2022/03/17 02:20:45;;;;;;;37.25;20.25;;;;;;;;;;5113130;27;20050;-71
2022/03/17 02:25:57;;;;;;;27.85;12.82;;;;;;;;;;5099037;28;20043;-71
2022/03/17 02:28:23;;;;;;;34.90;19.23;;;;;;;;;;5104335;28;20036;-71
2022/03/17 02:30:48;;;;;;;29.60;15.02;;;;;;;;;;5108776;28;20035;-71
2022/03/17 02:33:18;;;;;;;30.00;13.88;;;;;;;;;;5105077;28;20101;-71
2022/03/17 02:35:45;;;;;;;21.35;10.10;;;;;;;;;;5109574;27;20019;-71
2022/03/17 02:38:14;;;;;;;23.50;11.10;;;;;;;;;;5107930;28;20024;-71
2022/03/17 02:40:41;;;;;;;28.83;14.82;;;;;;;;;;5106203;27;20036;-71
2022/03/17 02:43:07;;;;;;;21.50;9.40;;;;;;;;;;5097897;28;20112;-71
2022/03/17 02:45:34;;;;;;;26.40;12.50;;;;;;;;;;5100028;27;20066;-71
2022/03/17 02:48:00;;;;;;;20.55;9.77;;;;;;;;;;5086305;28;20122;-71
2022/03/17 02:50:25;;;;;;;26.10;13.23;;;;;;;;;;5078768;28;20145;-71
2022/03/17 02:52:50;;;;;;;24.63;11.82;;;;;;;;;;5087847;28;20309;-71
2022/03/17 02:55:16;;;;;;;22.95;11.43;;;;;;;;;;5088882;28;20059;-71
2022/03/17 02:57:44;;;;;;;26.67;12.57;;;;;;;;;;5088248;28;20032;-71
2022/03/17 03:00:10;;;;;;;25.70;11.95;;;;;;;;;;5085799;28;20063;-71
2022/03/17 03:02:37;;;;;;;24.35;10.95;;;;;;;;;;5079955;28;20032;-71
2022/03/17 03:05:03;;;;;;;25.25;10.88;;;;;;;;;;5087566;28;20020;-71
2022/03/17 03:07:29;;;;;;;22.98;10.48;;;;;;;;;;5086788;28;20101;-71
2022/03/17 03:09:55;;;;;;;25.75;11.40;;;;;;;;;;5099711;27;20040;-71
2022/03/17 03:12:20;;;;;;;27.67;12.40;;;;;;;;;;5092511;28;20032;-71
2022/03/17 03:14:46;;;;;;;24.65;12.30;;;;;;;;;;5107433;27;20026;-71
2022/03/17 03:17:11;;;;;;;23.85;11.93;;;;;;;;;;5112229;27;20019;-71
2022/03/17 03:19:37;;;;;;;27.02;14.20;;;;;;;;;;5089506;28;20089;-71
2022/03/17 03:22:02;;;;;;;22.17;10.45;;;;;;;;;;5101030;28;20036;-71
2022/03/17 03:24:28;;;;;;;25.85;12.10;;;;;;;;;;5104308;27;20109;-71
2022/03/17 03:26:53;;;;;;;30.58;15.63;;;;;;;;;;5108447;28;20048;-71
2022/03/17 03:29:22;;;;;;;29.92;13.93;;;;;;;;;;5107610;28;20024;-71
2022/03/17 03:31:50;;;;;;;24.50;11.52;;;;;;;;;;5101823;28;20036;-71
2022/03/17 03:34:15;;;;;;;24.05;12.73;;;;;;;;;;5097003;28;20058;-71
2022/03/17 03:39:24;;;;;;;;;;;;;;;;;;5083934;28;20527;-71
2022/03/17 03:41:49;;;;;;;21.08;9.07;;;;;;;;;;5088550;28;19908;-71
2022/03/17 03:44:15;;;;;;;17.45;8.32;;;;;;;;;;5088291;28;20082;-71
2022/03/17 03:46:41;;;;;;;21.17;8.65;;;;;;;;;;5100814;28;20040;-71
2022/03/17 03:49:07;;;;;;;23.40;11.30;;;;;;;;;;5081168;27;20035;-71
2022/03/17 03:51:32;;;;;;;21.48;10.13;;;;;;;;;;5097395;28;20110;-71
2022/03/17 03:54:13;;;;;;;20.17;9.13;;;;;;;;;;5108680;27;20441;-71
2022/03/17 03:56:47;;;;;;;26.52;12.13;;;;;;;;;;5103189;28;20035;-71
2022/03/17 03:59:22;;;;;;;21.98;9.48;;;;;;;;;;5110551;28;20126;-71
2022/03/17 04:01:50;;;;;;;16.33;7.90;;;;;;;;;;5099670;28;20481;-71
2022/03/17 04:04:19;;;;;;;21.38;10.23;;;;;;;;;;5094074;28;20050;-71
2022/03/17 04:06:46;;;;;;;19.70;9.15;;;;;;;;;;5094419;28;20028;-71
2022/03/17 04:09:17;;;;;;;20.13;9.18;;;;;;;;;;5120278;27;20070;-71
2022/03/17 04:11:44;;;;;;;13.65;6.57;;;;;;;;;;5108425;27;20438;-71
2022/03/17 04:14:11;;;;;;;12.48;5.80;;;;;;;;;;5099037;28;20846;-71
2022/03/17 04:16:37;;;;;;;17.80;7.97;;;;;;;;;;5111972;27;20092;-71
2022/03/17 04:19:02;;;;;;;14.38;6.28;;;;;;;;;;5110848;28;20094;-71
2022/03/17 04:21:28;;;;;;;15.40;7.63;;;;;;;;;;5098178;28;20032;-71
2022/03/17 04:23:54;;;;;;;15.70;7.25;;;;;;;;;;5108734;27;20084;-71
2022/03/17 04:26:19;;;;;;;13.40;6.80;;;;;;;;;;5112360;28;20028;-71
2022/03/17 04:28:44;;;;;;;14.30;6.70;;;;;;;;;;5119010;27;20031;-71
2022/03/17 04:31:10;;;;;;;14.90;8.30;;;;;;;;;;5110188;28;20059;-71
2022/03/17 04:33:35;;;;;;;20.38;8.65;;;;;;;;;;5110547;28;20036;-71
2022/03/17 04:36:05;;;;;;;17.83;9.68;;;;;;;;;;5103331;28;20524;-71
2022/03/17 04:38:31;;;;;;;13.52;6.47;;;;;;;;;;5100434;28;20074;-71
2022/03/17 04:40:57;;;;;;;15.68;6.63;;;;;;;;;;5090840;28;20068;-71
2022/03/17 04:43:22;;;;;;;12.48;5.70;;;;;;;;;;5090982;28;20492;-71
2022/03/17 04:45:47;;;;;;;12.35;5.78;;;;;;;;;;5086022;28;20063;-71
2022/03/17 04:48:14;;;;;;;10.23;4.50;;;;;;;;;;5087602;28;20442;-72
2022/03/17 04:50:40;;;;;;;9.43;5.30;;;;;;;;;;5089393;28;20123;-71
2022/03/17 04:55:50;;;;;;;11.75;6.00;;;;;;;;;;5080712;28;20042;-71
2022/03/17 04:58:15;;;;;;;12.15;5.90;;;;;;;;;;5086670;28;20119;-71
2022/03/17 05:00:44;;;;;;;13.50;5.10;;;;;;;;;;5086148;28;20075;-71
2022/03/17 05:03:09;;;;;;;13.73;6.38;;;;;;;;;;5091396;27;20421;-72
2022/03/17 05:05:35;;;;;;;15.13;6.18;;;;;;;;;;5087972;28;20024;-71
2022/03/17 05:08:00;;;;;;;13.88;6.15;;;;;;;;;;5091859;28;20428;-72
2022/03/17 05:10:28;;;;;;;11.90;5.60;;;;;;;;;;5084278;27;20044;-71
2022/03/17 05:12:54;;;;;;;14.80;6.00;;;;;;;;;;5082364;27;20047;-71
2022/03/17 05:15:20;;;;;;;13.85;7.38;;;;;;;;;;5078958;27;20517;-71
2022/03/17 05:17:47;;;;;;;15.30;6.35;;;;;;;;;;5088000;27;20110;-71
2022/03/17 05:20:12;;;;;;;12.80;6.70;;;;;;;;;;5071168;28;20029;-71
2022/03/17 05:22:39;;;;;;;14.43;5.78;;;;;;;;;;5081183;28;20551;-71
2022/03/17 05:25:06;;;;;;;17.58;7.72;;;;;;;;;;5081133;28;20425;-71
2022/03/17 05:27:34;;;;;;;14.20;6.13;;;;;;;;;;5095282;27;20118;-71
2022/03/17 05:30:00;;;;;;;12.90;6.30;;;;;;;;;;5089967;27;20032;-71
2022/03/17 05:32:25;;;;;;;11.30;5.97;;;;;;;;;;5089783;28;20038;-71
2022/03/17 05:34:51;;;;;;;13.85;7.13;;;;;;;;;;5077417;27;20113;-72
2022/03/17 05:37:16;;;;;;;15.05;6.32;;;;;;;;;;5084668;27;20055;-72
2022/03/17 05:39:41;;;;;;;12.95;4.88;;;;;;;;;;5087041;28;20035;-71
2022/03/17 05:42:06;;;;;;;6.93;3.45;;;;;;;;;;5082345;27;20059;-71
2022/03/17 05:44:33;;;;;;;8.85;3.67;;;;;;;;;;5084577;28;20048;-71
2022/03/17 05:46:58;;;;;;;9.43;4.78;;;;;;;;;;5079766;28;20046;-71
2022/03/17 05:49:24;;;;;;;5.88;3.47;;;;;;;;;;5078585;28;20040;-71
2022/03/17 05:51:49;;;;;;;6.63;3.05;;;;;;;;;;5089864;27;20051;-71
2022/03/17 05:54:14;;;;;;;4.95;2.80;;;;;;;;;;5076985;28;20106;-71
2022/03/17 05:56:39;;;;;;;6.43;3.65;;;;;;;;;;5078644;27;20107;-71
2022/03/17 05:59:05;;;;;;;13.20;4.93;;;;;;;;;;5086067;28;20050;-71
2022/03/17 06:01:30;;;;;;;10.45;4.60;;;;;;;;;;5082554;28;20036;-71
2022/03/17 06:03:57;;;;;;;9.75;4.93;;;;;;;;;;5098804;27;20035;-71
2022/03/17 06:06:22;;;;;;;9.13;3.22;;;;;;;;;;5090208;28;20070;-72
2022/03/17 06:08:48;;;;;;;6.90;3.50;;;;;;;;;;5088586;27;20059;-72
2022/03/17 06:11:13;;;;;;;10.40;4.93;;;;;;;;;;5088498;28;20027;-72
2022/03/17 06:13:38;;;;;;;11.77;5.38;;;;;;;;;;5110397;27;20756;-71
2022/03/17 06:16:05;;;;;;;8.60;4.18;;;;;;;;;;5090759;27;20466;-71
2022/03/17 06:18:31;;;;;;;10.32;4.30;;;;;;;;;;5094753;28;20036;-71
2022/03/17 06:20:56;;;;;;;8.18;3.70;;;;;;;;;;5085473;28;20461;-71
2022/03/17 06:23:21;;;;;;;14.95;4.38;;;;;;;;;;5089574;28;20746;-71
2022/03/17 06:25:47;;;;;;;10.95;5.22;;;;;;;;;;5085657;27;20036;-71
2022/03/17 06:28:14;;;;;;;12.35;4.32;;;;;;;;;;5087102;28;20032;-71
2022/03/17 06:30:39;;;;;;;8.55;4.35;;;;;;;;;;5089661;27;20044;-71
2022/03/17 06:33:05;;;;;;;9.40;4.25;;;;;;;;;;5089106;27;20415;-71
2022/03/17 06:35:31;;;;;;;8.77;3.35;;;;;;;;;;5088824;28;20035;-71
2022/03/17 06:37:59;;;;;;;5.65;3.58;;;;;;;;;;5091298;28;20042;-71
2022/03/17 06:40:26;;;;;;;8.48;4.00;;;;;;;;;;5098297;28;20115;-71
2022/03/17 06:42:52;;;;;;;10.60;5.63;;;;;;;;;;5082846;28;20036;-71
2022/03/17 06:45:18;;;;;;;10.60;4.32;;;;;;;;;;5093324;28;20488;-71
2022/03/17 06:47:44;;;;;;;8.68;4.65;;;;;;;;;;5086199;27;20032;-71
2022/03/17 06:50:11;;;;;;;9.02;4.40;;;;;;;;;;5082070;28;20012;-71
2022/03/17 06:52:37;;;;;;;11.82;5.07;;;;;;;;;;5072452;28;20447;-71
2022/03/17 06:55:03;;;;;;;11.48;5.55;;;;;;;;;;5075242;28;20090;-71
2022/03/17 06:57:28;;;;;;;13.98;4.93;;;;;;;;;;5078575;27;20040;-71
2022/03/17 06:59:54;;;;;;;13.75;4.70;;;;;;;;;;5089405;28;20052;-72
2022/03/17 07:02:19;;;;;;;12.93;4.93;;;;;;;;;;5087872;28;20085;-75
2022/03/17 07:04:46;;;;;;;6.82;3.83;;;;;;;;;;5086711;27;20050;-70
2022/03/17 07:07:11;;;;;;;12.27;5.65;;;;;;;;;;5086230;28;20032;-70
2022/03/17 07:09:37;;;;;;;12.10;5.45;;;;;;;;;;5082619;28;20106;-70
2022/03/17 07:12:04;;;;;;;12.45;4.85;;;;;;;;;;5079576;28;20509;-70
2022/03/17 07:14:30;;;;;;;13.07;6.20;;;;;;;;;;5085770;28;20070;-71
2022/03/17 07:16:55;;;;;;;10.60;5.60;;;;;;;;;;5085144;28;20032;-71
2022/03/17 07:19:20;;;;;;;17.30;5.55;;;;;;;;;;5075356;28;20068;-70
2022/03/17 07:21:46;;;;;;;12.63;4.95;;;;;;;;;;5068419;28;20032;-71
2022/03/17 07:24:11;;;;;;;10.32;5.10;;;;;;;;;;5073705;28;20028;-70
2022/03/17 07:26:37;;;;;;;12.65;5.63;;;;;;;;;;5085983;28;20024;-71
2022/03/17 07:29:03;;;;;;;9.93;3.95;;;;;;;;;;5093151;28;20084;-70
2022/03/17 07:31:29;;;;;;;11.30;5.50;;;;;;;;;;5081797;28;20040;-70
2022/03/17 07:33:55;;;;;;;11.25;4.90;;;;;;;;;;5089717;28;20648;-71
2022/03/17 07:36:21;;;;;;;11.70;5.05;;;;;;;;;;5098739;27;20573;-70
2022/03/17 07:38:48;;;;;;;11.68;4.97;;;;;;;;;;5103648;27;20039;-71
2022/03/17 07:41:14;;;;;;;11.02;4.72;;;;;;;;;;5094622;28;20019;-72
2022/03/17 07:43:41;;;;;;;9.57;4.32;;;;;;;;;;5092917;27;20501;-66
2022/03/17 07:46:06;;;;;;;10.48;5.15;;;;;;;;;;5090382;28;20474;-67
2022/03/17 07:48:32;;;;;;;11.65;5.35;;;;;;;;;;5107625;27;20512;-67
2022/03/17 07:50:57;;;;;;;7.50;3.97;;;;;;;;;;5105838;27;20080;-67
2022/03/17 07:53:22;;;;;;;13.15;6.20;;;;;;;;;;5098683;28;20049;-66
2022/03/17 07:55:48;;;;;;;8.57;4.32;;;;;;;;;;5100914;28;20074;-67
2022/03/17 07:58:15;;;;;;;11.73;5.60;;;;;;;;;;5102794;27;20070;-68
2022/03/17 08:00:42;;;;;;;10.90;5.35;;;;;;;;;;5103795;27;20036;-67
2022/03/17 08:03:07;;;;;;;14.95;6.32;;;;;;;;;;5100111;28;20040;-68
2022/03/17 08:05:32;;;;;;;11.23;5.03;;;;;;;;;;5109504;28;20019;-68
2022/03/17 08:08:00;;;;;;;13.75;5.47;;;;;;;;;;5106317;28;20023;-67
2022/03/17 08:10:28;;;;;;;10.73;5.35;;;;;;;;;;5089098;28;20104;-71
2022/03/17 08:12:54;;;;;;;16.50;6.47;;;;;;;;;;5104561;28;20466;-70
2022/03/17 08:15:19;;;;;;;12.05;5.45;;;;;;;;;;5098229;27;20642;-69
2022/03/17 08:17:44;;;;;;;6.22;3.58;;;;;;;;;;5105352;27;20049;-76
2022/03/17 08:20:10;;;;;;;9.82;4.60;;;;;;;;;;5099894;27;20023;-74
2022/03/17 08:22:35;;;;;;;15.60;5.18;;;;;;;;;;5103598;28;20039;-73
2022/03/17 08:25:01;;;;;;;10.55;4.35;;;;;;;;;;5084596;28;20074;-71
2022/03/17 08:27:26;;;;;;;10.23;4.65;;;;;;;;;;5054324;27;20054;-74
2022/03/17 08:29:51;;;;;;;8.90;3.83;;;;;;;;;;5045945;27;20075;-72
2022/03/17 08:32:17;;;;;;;12.10;5.85;;;;;;;;;;5046176;28;20507;-72
2022/03/17 08:34:42;;;;;;;11.57;6.05;;;;;;;;;;5066562;27;20031;-71
2022/03/17 08:37:09;;;;;;;12.68;6.05;;;;;;;;;;5108054;28;20035;-72
2022/03/17 08:39:34;;;;;;;7.25;3.58;;;;;;;;;;5109991;27;20044;-71
2022/03/17 08:42:00;;;;;;;8.18;3.85;;;;;;;;;;5103250;27;20032;-74
2022/03/17 08:44:25;;;;;;;8.70;3.58;;;;;;;;;;5101701;28;20035;-76
2022/03/17 08:49:35;;;;;;;8.63;4.30;;;;;;;;;;5100078;28;20568;-71
2022/03/17 08:52:01;;;;;;;9.52;3.90;;;;;;;;;;5103348;28;20130;-72
2022/03/17 08:54:28;;;;;;;7.40;3.58;;;;;;;;;;5100535;28;20040;-73
2022/03/17 08:56:59;;;;;;;8.23;3.42;;;;;;;;;;5086234;28;20070;-72
2022/03/17 08:59:29;;;;;;;8.43;3.70;;;;;;;;;;5080738;28;20062;-72
2022/03/17 09:01:54;;;;;;;6.00;3.33;;;;;;;;;;5085552;28;20682;-71
2022/03/17 09:04:20;;;;;;;5.38;2.88;;;;;;;;;;5088291;28;20505;-73
2022/03/17 09:06:46;;;;;;;11.52;3.80;;;;;;;;;;5087561;28;20462;-73
2022/03/17 09:09:11;;;;;;;5.97;2.97;;;;;;;;;;5084617;28;20070;-72
2022/03/17 09:11:38;;;;;;;7.40;3.55;;;;;;;;;;5085222;27;20035;-72
2022/03/17 09:14:04;;;;;;;4.00;1.98;;;;;;;;;;5082959;28;20111;-73
2022/03/17 09:16:29;;;;;;;6.25;3.53;;;;;;;;;;5083922;28;20070;-75
2022/03/17 09:18:55;;;;;;;9.95;3.50;;;;;;;;;;5097914;27;20058;-71
2022/03/17 09:21:21;;;;;;;7.18;3.17;;;;;;;;;;5102902;28;20047;-74
2022/03/17 09:23:46;;;;;;;6.43;3.22;;;;;;;;;;5105662;27;20028;-76
2022/03/17 09:26:11;;;;;;;6.07;3.28;;;;;;;;;;5106212;27;20400;-74
2022/03/17 09:28:37;;;;;;;10.15;2.63;;;;;;;;;;5118331;27;20410;-74
2022/03/17 09:31:02;;;;;;;4.63;2.47;;;;;;;;;;5087261;28;20036;-75
2022/03/17 09:33:27;;;;;;;5.93;3.78;;;;;;;;;;5108417;27;20031;-75
2022/03/17 09:35:54;;;;;;;11.50;3.70;;;;;;;;;;5103971;28;20063;-74
2022/03/17 09:38:20;;;;;;;8.68;3.20;;;;;;;;;;5105178;28;20039;-73
2022/03/17 09:40:45;;;;;;;6.18;3.13;;;;;;;;;;5096674;28;20036;-74
2022/03/17 09:43:28;;;;;;;7.80;3.45;;;;;;;;;;5103504;28;20031;-74
2022/03/17 09:45:55;;;;;;;5.15;2.63;;;;;;;;;;5104537;27;20587;-73
2022/03/17 09:48:23;;;;;;;10.18;4.10;;;;;;;;;;5104135;28;20043;-75
2022/03/17 09:50:55;;;;;;;6.88;3.15;;;;;;;;;;5104429;27;20031;-74
2022/03/17 09:53:23;;;;;;;9.88;3.10;;;;;;;;;;5085153;28;20786;-74
2022/03/17 09:55:48;;;;;;;7.38;3.67;;;;;;;;;;5086977;28;20130;-74
2022/03/17 09:58:13;;;;;;;4.53;2.38;;;;;;;;;;5099181;28;20118;-74
2022/03/17 10:00:48;;;;;;;6.57;2.60;;;;;;;;;;5107430;28;20401;-73
2022/03/17 10:03:16;;;;;;;5.47;3.40;;;;;;;;;;5103351;28;20061;-73
2022/03/17 10:05:44;;;;;;;7.72;2.53;;;;;;;;;;5093324;28;20169;-71
2022/03/17 10:08:09;;;;;;;8.57;3.10;;;;;;;;;;5098055;27;20825;-72
2022/03/17 10:10:36;;;;;;;6.82;3.30;;;;;;;;;;5096468;27;20082;-72
2022/03/17 10:13:19;;;;;;;7.10;3.10;;;;;;;;;;5094422;27;20040;-72
2022/03/17 10:15:47;;;;;;;7.30;3.00;;;;;;;;;;5089851;28;20508;-72
2022/03/17 10:18:19;;;;;;;7.38;2.97;;;;;;;;;;5106064;27;20650;-71
2022/03/17 10:20:45;;;;;;;7.03;2.75;;;;;;;;;;5105851;27;20504;-72
2022/03/17 10:23:11;;;;;;;5.93;3.47;;;;;;;;;;5115080;27;20036;-72
2022/03/17 10:25:37;;;;;;;5.20;2.30;;;;;;;;;;5097460;28;20964;-72
2022/03/17 10:28:03;;;;;;;5.65;2.30;;;;;;;;;;5095678;27;20039;-71
2022/03/17 10:30:34;;;;;;;6.22;2.63;;;;;;;;;;5095915;27;20142;-71
2022/03/17 10:33:03;;;;;;;7.82;2.80;;;;;;;;;;5091797;28;20038;-72
2022/03/17 10:35:34;;;;;;;4.60;2.63;;;;;;;;;;5091380;28;20103;-72
2022/03/17 10:38:17;;;;;;;4.78;2.80;;;;;;;;;;5068235;28;20153;-71
2022/03/17 10:40:45;;;;;;;4.80;2.63;;;;;;;;;;5086680;28;20843;-72
2022/03/17 10:43:18;;;;;;;4.90;2.78;;;;;;;;;;5085707;28;20588;-71
2022/03/17 10:45:44;;;;;;;;;;;;;;;;;;5085148;28;20040;-71
2022/03/17 10:48:09;;;;;;;5.78;3.20;;;;;;;;;;5086179;28;20385;-71
2022/03/17 10:50:40;;;;;;;5.07;2.58;;;;;;;;;;5083815;28;20035;-71
2022/03/17 10:53:05;;;;;;;8.55;2.75;;;;;;;;;;5068848;28;20034;-71
2022/03/17 10:55:32;;;;;;;6.30;2.70;;;;;;;;;;5081511;28;20425;-72
2022/03/17 10:58:19;;;;;;;7.05;3.78;;;;;;;;;;5072852;28;20553;-72
2022/03/17 11:00:48;;;;;;;8.18;2.63;;;;;;;;;;5082864;28;20066;-72
2022/03/17 11:03:14;;;;;;;6.55;3.15;;;;;;;;;;5085499;28;20120;-72
2022/03/17 11:05:40;;;;;;;4.15;2.42;;;;;;;;;;5084276;28;20077;-73
2022/03/17 11:08:09;;;;;;;10.43;2.72;;;;;;;;;;5086315;28;20024;-69
2022/03/17 11:10:39;;;;;;;6.05;2.58;;;;;;;;;;5080733;28;20040;-73
2022/03/17 11:13:11;;;;;;;7.88;2.75;;;;;;;;;;5080738;28;20441;-73
2022/03/17 11:15:38;;;;;;;5.28;2.30;;;;;;;;;;5075843;28;20024;-73
2022/03/17 11:18:06;;;;;;;5.82;2.20;;;;;;;;;;5080043;28;20104;-70
2022/03/17 11:20:33;;;;;;;5.40;2.60;;;;;;;;;;5083445;28;20061;-71
2022/03/17 11:23:18;;;;;;;4.22;2.70;;;;;;;;;;5085128;28;20031;-71
2022/03/17 11:25:52;;;;;;;5.18;2.60;;;;;;;;;;5076517;28;20101;-71
2022/03/17 11:28:17;;;;;;;;;;;;;;;;;;5074981;28;20033;-70
2022/03/17 11:30:47;;;;;;;6.13;2.20;;;;;;;;;;5079636;28;20364;-71
2022/03/17 11:33:26;;;;;;;5.88;2.50;;;;;;;;;;5074213;27;20064;-71
2022/03/17 11:35:59;;;;;;;6.70;2.67;;;;;;;;;;5086856;28;20043;-71
2022/03/17 11:38:27;;;;;;;5.22;2.70;;;;;;;;;;5105927;28;20023;-71
2022/03/17 11:41:17;;;;;;;5.78;2.60;;;;;;;;;;5100300;27;20038;-77
2022/03/17 11:43:45;;;;;;;12.23;3.00;;;;;;;;;;5093295;28;20580;-71
2022/03/17 11:46:12;;;;;;;6.13;2.60;;;;;;;;;;5103460;27;20056;-71
2022/03/17 11:48:37;;;;;;;4.75;2.88;;;;;;;;;;5085432;27;20401;-74
2022/03/17 11:51:05;;;;;;;6.60;2.55;;;;;;;;;;5098118;28;20114;-76
2022/03/17 11:53:49;;;;;;;5.55;2.50;;;;;;;;;;5083695;28;20066;-71
2022/03/17 11:56:42;;;;;;;3.63;2.17;;;;;;;;;;5100503;28;20059;-73
2022/03/17 11:59:09;;;;;;;7.15;2.55;;;;;;;;;;5099278;28;20539;-74
2022/03/17 12:01:41;;;;;;;5.43;2.25;;;;;;;;;;5087173;28;20685;-70
2022/03/17 12:04:08;;;;;;;7.53;2.50;;;;;;;;;;5099457;28;20123;-72
2022/03/17 12:06:37;;;;;;;5.85;2.60;;;;;;;;;;5094681;27;20138;-71
2022/03/17 12:09:11;;;;;;;4.75;3.08;;;;;;;;;;5097685;28;20067;-71
2022/03/17 12:11:49;;;;;;;4.43;2.70;;;;;;;;;;5102842;27;20050;-72
2022/03/17 12:14:25;;;;;;;6.63;3.53;;;;;;;;;;5096749;28;20404;-77
2022/03/17 12:16:56;;;;;;;5.43;2.63;;;;;;;;;;5094368;28;20874;-72
2022/03/17 12:19:32;;;;;;;6.03;3.03;;;;;;;;;;5093294;28;20032;-76
2022/03/17 12:21:57;;;;;;;5.20;2.90;;;;;;;;;;5101164;28;20109;-73
2022/03/17 12:24:41;;;;;;;11.90;3.45;;;;;;;;;;5086942;28;20065;-74
2022/03/17 12:27:12;;;;;;;;;;;;;;;;;;5091321;28;20040;-72
2022/03/17 12:29:38;;;;;;;5.68;2.97;;;;;;;;;;5093152;28;19950;-73
2022/03/17 12:32:07;;;;;;;7.25;3.15;;;;;;;;;;5104353;28;20031;-77
2022/03/17 12:34:34;;;;;;;6.43;3.45;;;;;;;;;;5107394;27;20044;-72
2022/03/17 12:37:01;;;;;;;7.22;3.25;;;;;;;;;;5093089;28;20043;-70
2022/03/17 12:39:28;;;;;;;8.18;2.92;;;;;;;;;;5081760;28;20039;-72
2022/03/17 12:41:55;;;;;;;4.65;2.60;;;;;;;;;;5084418;27;20048;-73
2022/03/17 12:44:22;;;;;;;6.28;3.42;;;;;;;;;;5077592;28;20062;-74
2022/03/17 12:46:48;;;;;;;5.20;2.78;;;;;;;;;;5086395;27;20064;-72
2022/03/17 12:49:13;;;;;;;6.53;2.90;;;;;;;;;;5079556;28;20619;-74
2022/03/17 12:51:39;;;;;;;13.05;3.10;;;;;;;;;;5091286;27;20035;-73
2022/03/17 12:54:04;;;;;;;5.18;2.83;;;;;;;;;;5103232;27;20038;-72
2022/03/17 12:56:29;;;;;;;7.60;3.30;;;;;;;;;;5089455;28;20658;-70
2022/03/17 12:58:55;;;;;;;6.35;3.15;;;;;;;;;;5103348;27;20092;-74
2022/03/17 13:01:21;;;;;;;6.53;3.53;;;;;;;;;;5107496;28;20048;-74
2022/03/17 13:03:48;;;;;;;5.22;2.80;;;;;;;;;;5107643;27;20063;-73
2022/03/17 13:09:01;;;;;;;6.75;3.25;;;;;;;;;;5107510;27;20038;-74
2022/03/17 13:14:24;;;;;;;;;;;;;;;;;;5104736;28;20046;-73
2022/03/17 13:17:03;;;;;;;6.90;2.80;;;;;;;;;;5105354;27;19919;-71
2022/03/17 13:19:28;;;;;;;5.53;2.88;;;;;;;;;;5103355;27;20047;-71
2022/03/17 13:22:07;;;;;;;5.07;3.03;;;;;;;;;;5105909;28;20036;-74
2022/03/17 13:24:32;;;;;;;8.98;3.22;;;;;;;;;;5103510;28;20130;-72
2022/03/17 13:26:59;;;;;;;5.70;3.15;;;;;;;;;;5112814;27;20138;-71
2022/03/17 13:29:25;;;;;;;8.73;3.90;;;;;;;;;;5107844;27;20023;-71
2022/03/17 13:31:50;;;;;;;5.53;3.03;;;;;;;;;;5103485;27;20036;-71
2022/03/17 13:34:38;;;;;;;6.47;3.58;;;;;;;;;;5104127;27;20066;-71
2022/03/17 13:37:12;;;;;;;6.72;3.00;;;;;;;;;;5102794;27;20043;-70
2022/03/17 13:39:37;;;;;;;6.03;3.40;;;;;;;;;;5107072;28;20036;-69
2022/03/17 13:42:09;;;;;;;6.05;2.80;;;;;;;;;;5105233;28;20478;-68
2022/03/17 13:44:55;;;;;;;6.38;3.15;;;;;;;;;;5103937;27;20039;-69
2022/03/17 13:47:29;;;;;;;7.53;3.90;;;;;;;;;;5103943;28;20507;-72
2022/03/17 13:50:20;;;;;;;6.03;3.10;;;;;;;;;;5103218;27;20035;-69
2022/03/17 13:53:17;;;;;;;6.35;3.45;;;;;;;;;;5108982;27;20043;-67
2022/03/17 13:56:04;;;;;;;8.50;3.78;;;;;;;;;;5104005;28;20047;-73
2022/03/17 13:58:32;;;;;;;11.82;3.53;;;;;;;;;;5105131;27;20040;-71
2022/03/17 14:01:13;;;;;;;7.07;3.28;;;;;;;;;;5103893;28;20042;-71
2022/03/17 14:03:44;;;;;;;6.28;3.30;;;;;;;;;;5104246;28;20036;-72
2022/03/17 14:06:17;;;;;;;10.70;3.33;;;;;;;;;;5094957;28;20618;-70
2022/03/17 14:08:48;;;;;;;6.43;3.20;;;;;;;;;;5101600;28;20110;-72
2022/03/17 14:11:36;;;;;;;6.00;3.47;;;;;;;;;;5105506;28;20020;-73
2022/03/17 14:14:09;;;;;;;7.18;3.50;;;;;;;;;;5105212;28;20056;-71
2022/03/17 14:16:36;;;;;;;;;;;;;;;;;;5106473;27;20039;-72
2022/03/17 14:19:04;;;;;;;7.65;3.42;;;;;;;;;;5105758;28;19931;-71
2022/03/17 14:21:30;;;;;;;7.80;3.45;;;;;;;;;;5094166;28;20127;-71
2022/03/17 14:24:12;;;;;;;7.28;3.55;;;;;;;;;;5098915;28;20136;-71
2022/03/17 14:26:48;;;;;;;6.78;3.83;;;;;;;;;;5098968;27;20023;-72
2022/03/17 14:29:15;;;;;;;5.00;3.25;;;;;;;;;;5101422;28;20024;-70
2022/03/17 14:31:42;;;;;;;12.15;3.63;;;;;;;;;;5105003;28;20043;-70
2022/03/17 14:34:09;;;;;;;7.40;3.38;;;;;;;;;;5107980;27;20055;-68
2022/03/17 14:36:38;;;;;;;5.07;3.05;;;;;;;;;;5101065;28;20055;-71
2022/03/17 14:39:06;;;;;;;8.52;3.50;;;;;;;;;;5104445;28;20032;-70
2022/03/17 14:41:32;;;;;;;10.57;3.63;;;;;;;;;;5102539;28;20561;-69
2022/03/17 14:43:59;;;;;;;6.75;3.50;;;;;;;;;;5103005;27;20511;-72
2022/03/17 14:46:25;;;;;;;9.85;3.45;;;;;;;;;;5093257;28;20039;-72
2022/03/17 14:48:51;;;;;;;7.57;3.95;;;;;;;;;;5102909;28;20184;-68
2022/03/17 14:51:17;;;;;;;5.40;3.53;;;;;;;;;;5103849;27;20576;-70
2022/03/17 14:53:43;;;;;;;8.00;3.65;;;;;;;;;;5118587;27;20023;-71
2022/03/17 14:56:12;;;;;;;7.93;3.90;;;;;;;;;;5105366;28;20036;-72